Time;durP1;ratioP1;P1;durP2;ratioP2;P2;SDS_P1;SDS_P2;PMS_P1;PMS_P2;Temp;Humidity;BMP_temperature;BMP_pressure;BME280_temperature;BME280_humidity;BME280_pressure;Samples;Min_cycle;Max_cycle;Signal;HPM_P1;HPM_P2
2021/12/22 00:00:55;;;;;;;;;;;-0.70;99.90;;;;;;2089172;28;20206;-71
2021/12/22 00:01:58;;;;;;;45.17;21.57;;;-0.70;99.90;;;;;;2087169;28;20438;-70
2021/12/22 00:03:00;;;;;;;45.85;22.77;;;-0.70;99.90;;;;;;2087202;28;20369;-71
2021/12/22 00:04:03;;;;;;;;;;;-0.70;99.90;;;;;;2090582;28;20065;-70
2021/12/22 00:05:06;;;;;;;58.13;23.48;;;-0.70;99.90;;;;;;2088058;28;20276;-70
2021/12/22 00:06:08;;;;;;;;;;;-0.70;99.90;;;;;;2082910;28;20053;-71
2021/12/22 00:07:11;;;;;;;50.60;22.80;;;-0.70;99.90;;;;;;2089357;28;20007;-70
2021/12/22 00:08:14;;;;;;;47.40;22.83;;;-0.70;99.90;;;;;;2081749;28;20057;-70
2021/12/22 00:09:17;;;;;;;50.55;22.50;;;-0.60;99.90;;;;;;2081687;28;20057;-70
2021/12/22 00:10:19;;;;;;;;;;;-0.60;99.90;;;;;;2082703;28;20944;-71
2021/12/22 00:11:21;;;;;;;41.60;21.45;;;-0.60;99.90;;;;;;2089909;28;19925;-70
2021/12/22 00:12:23;;;;;;;54.28;24.02;;;-0.60;99.90;;;;;;2089069;28;20459;-70
2021/12/22 00:13:25;;;;;;;52.67;23.58;;;-0.50;99.90;;;;;;2089315;28;20041;-70
2021/12/22 00:14:27;;;;;;;;;;;-0.60;99.90;;;;;;2083093;28;20042;-71
2021/12/22 00:15:29;;;;;;;49.55;24.00;;;-0.60;99.90;;;;;;2090180;28;19959;-70
2021/12/22 00:16:32;;;;;;;48.30;23.30;;;-0.60;99.90;;;;;;2081602;28;20472;-70
2021/12/22 00:17:34;;;;;;;54.08;24.20;;;-0.60;99.90;;;;;;2088970;28;20532;-70
2021/12/22 00:18:36;;;;;;;52.40;24.38;;;-0.60;99.90;;;;;;2084713;28;20390;-70
2021/12/22 00:19:38;;;;;;;50.22;24.90;;;-0.50;99.90;;;;;;2081866;28;20046;-70
2021/12/22 00:20:40;;;;;;;55.10;23.88;;;-0.40;99.90;;;;;;2081872;28;20045;-70
2021/12/22 00:21:42;;;;;;;48.53;24.52;;;-0.40;99.90;;;;;;2085554;28;20049;-70
2021/12/22 00:22:44;;;;;;;47.85;24.63;;;-0.40;99.90;;;;;;2083841;28;20124;-70
2021/12/22 00:23:46;;;;;;;50.80;24.05;;;-0.40;99.90;;;;;;2080164;28;20517;-70
2021/12/22 00:24:48;;;;;;;44.20;24.27;;;-0.40;99.90;;;;;;2086882;28;20103;-71
2021/12/22 00:25:50;;;;;;;49.55;23.40;;;-0.40;99.90;;;;;;2096922;28;20135;-70
2021/12/22 00:26:53;;;;;;;45.05;22.40;;;-0.30;99.90;;;;;;2086812;28;20045;-69
2021/12/22 00:27:58;;;;;;;50.13;23.42;;;-0.40;99.90;;;;;;2086586;28;20046;-70
2021/12/22 00:29:00;;;;;;;46.92;23.98;;;-0.40;99.90;;;;;;2091038;28;20490;-70
2021/12/22 00:30:03;;;;;;;47.60;24.20;;;-0.40;99.90;;;;;;2089035;28;20620;-70
2021/12/22 00:31:11;;;;;;;51.72;25.58;;;-0.40;99.90;;;;;;2082521;28;20068;-70
2021/12/22 00:32:16;;;;;;;50.13;23.73;;;-0.40;99.90;;;;;;2086075;28;20099;-70
2021/12/22 00:33:19;;;;;;;52.97;22.40;;;-0.40;99.90;;;;;;2082097;28;20056;-70
2021/12/22 00:34:21;;;;;;;49.47;25.10;;;-0.30;99.90;;;;;;2081056;28;20046;-70
2021/12/22 00:35:27;;;;;;;52.35;24.70;;;-0.40;99.90;;;;;;2088854;28;20074;-70
2021/12/22 00:36:29;;;;;;;56.05;25.00;;;-0.40;99.90;;;;;;2081600;28;20167;-70
2021/12/22 00:37:32;;;;;;;49.30;24.17;;;-0.40;99.90;;;;;;2081307;28;20050;-70
2021/12/22 00:38:34;;;;;;;50.75;23.98;;;-0.40;99.90;;;;;;2081215;28;20075;-70
2021/12/22 00:39:36;;;;;;;51.83;22.75;;;-0.40;99.90;;;;;;2080768;28;20099;-70
2021/12/22 00:40:38;;;;;;;47.88;23.42;;;-0.40;99.90;;;;;;2081122;28;20061;-70
2021/12/22 00:41:40;;;;;;;47.17;22.83;;;-0.50;99.90;;;;;;2081742;28;20447;-70
2021/12/22 00:42:42;;;;;;;46.55;23.13;;;-0.60;99.90;;;;;;2080020;28;20095;-70
2021/12/22 00:43:44;;;;;;;44.72;22.30;;;-0.60;99.90;;;;;;2080503;28;20041;-70
2021/12/22 00:44:51;;;;;;;56.90;24.40;;;-0.70;99.90;;;;;;2089699;28;20045;-70
2021/12/22 00:45:56;;;;;;;48.15;23.10;;;-0.70;99.90;;;;;;2082033;28;20517;-70
2021/12/22 00:46:58;;;;;;;51.88;23.00;;;-0.80;99.90;;;;;;2089479;28;20456;-70
2021/12/22 00:48:01;;;;;;;48.75;23.58;;;-0.80;99.90;;;;;;2089420;28;20075;-70
2021/12/22 00:49:03;;;;;;;48.50;22.98;;;-0.70;99.90;;;;;;2082070;28;20120;-70
2021/12/22 00:50:06;;;;;;;53.10;23.25;;;-0.70;99.90;;;;;;2089592;28;20078;-70
2021/12/22 00:51:08;;;;;;;52.30;22.98;;;-0.80;99.90;;;;;;2089151;28;20044;-70
2021/12/22 00:52:10;;;;;;;46.42;22.85;;;-0.80;99.90;;;;;;2081909;28;20088;-70
2021/12/22 00:53:12;;;;;;;50.17;24.13;;;-0.80;99.90;;;;;;2086805;28;20127;-70
2021/12/22 00:54:14;;;;;;;44.13;23.77;;;-0.90;99.90;;;;;;2081793;28;20110;-70
2021/12/22 00:55:19;;;;;;;57.78;22.67;;;-0.90;99.90;;;;;;2081778;28;20846;-70
2021/12/22 00:56:21;;;;;;;46.90;22.65;;;-0.80;99.90;;;;;;2081322;28;20111;-70
2021/12/22 00:57:23;;;;;;;46.92;22.52;;;-0.80;99.90;;;;;;2081017;28;20517;-71
2021/12/22 00:58:25;;;;;;;47.00;22.52;;;-0.90;99.90;;;;;;2081275;28;20046;-70
2021/12/22 00:59:27;;;;;;;47.03;22.80;;;-0.90;99.90;;;;;;2073207;28;20488;-70
2021/12/22 01:00:28;;;;;;;;;;;-1.00;99.90;;;;;;2081673;28;20045;-70
2021/12/22 01:01:30;;;;;;;54.25;23.42;;;-1.00;99.90;;;;;;2085377;28;19974;-70
2021/12/22 01:02:33;;;;;;;52.08;24.55;;;-1.00;99.90;;;;;;2084260;28;20045;-70
2021/12/22 01:03:35;;;;;;;47.15;22.90;;;-1.00;99.90;;;;;;2085582;28;20049;-70
2021/12/22 01:04:38;;;;;;;57.25;24.60;;;-0.90;99.90;;;;;;2078458;28;20081;-70
2021/12/22 01:05:41;;;;;;;51.30;24.38;;;-0.90;99.90;;;;;;2081219;28;20050;-71
2021/12/22 01:06:42;;;;;;;;;;;-0.90;99.90;;;;;;2081615;28;20045;-70
2021/12/22 01:07:46;;;;;;;50.72;24.38;;;-0.80;99.90;;;;;;2083802;28;19925;-70
2021/12/22 01:08:51;;;;;;;53.95;23.02;;;-0.80;99.90;;;;;;2089746;28;20492;-70
2021/12/22 01:09:53;;;;;;;47.65;22.35;;;-0.80;99.90;;;;;;2090863;28;20491;-70
2021/12/22 01:10:55;;;;;;;54.50;25.65;;;-0.70;99.90;;;;;;2089129;28;20052;-70
2021/12/22 01:11:57;;;;;;;52.15;24.35;;;-0.60;99.90;;;;;;2081880;28;20045;-70
2021/12/22 01:13:06;;;;;;;55.22;25.23;;;-0.50;99.90;;;;;;2083019;28;20075;-70
2021/12/22 01:14:07;;;;;;;55.15;24.35;;;-0.50;99.90;;;;;;2085851;28;20040;-70
2021/12/22 01:15:13;;;;;;;48.15;23.98;;;-0.50;99.90;;;;;;2089607;28;20454;-70
2021/12/22 01:16:15;;;;;;;51.35;24.00;;;-0.50;99.90;;;;;;2098005;28;20058;-70
2021/12/22 01:17:17;;;;;;;57.97;26.17;;;-0.50;99.90;;;;;;2097378;28;20056;-70
2021/12/22 01:18:29;;;;;;;51.13;24.85;;;-0.50;99.90;;;;;;2089962;28;20699;-70
2021/12/22 01:19:44;;;;;;;49.13;24.50;;;-0.50;99.90;;;;;;2089360;28;20113;-70
2021/12/22 01:22:25;;;;;;;54.95;25.02;;;-0.40;99.90;;;;;;2086672;28;20110;-70
2021/12/22 01:23:33;;;;;;;47.42;23.17;;;-0.50;99.90;;;;;;2091258;28;20090;-72
2021/12/22 01:24:35;;;;;;;58.15;24.27;;;-0.50;99.90;;;;;;2096616;28;20053;-70
2021/12/22 01:25:43;;;;;;;53.90;24.33;;;-0.50;99.90;;;;;;2081366;28;20045;-70
2021/12/22 01:26:50;;;;;;;52.85;25.08;;;-0.50;99.90;;;;;;2086593;28;20144;-70
2021/12/22 01:27:52;;;;;;;52.78;25.38;;;-0.60;99.90;;;;;;2090948;28;20499;-70
2021/12/22 01:28:54;;;;;;;;;;;-0.60;99.90;;;;;;2097839;28;20048;-70
2021/12/22 01:29:56;;;;;;;51.87;24.63;;;-0.60;99.90;;;;;;2097236;28;20416;-70
2021/12/22 01:31:03;;;;;;;50.40;25.00;;;-0.50;99.90;;;;;;2089365;28;20317;-70
2021/12/22 01:32:08;;;;;;;50.80;24.27;;;-0.50;99.90;;;;;;2093517;28;20098;-70
2021/12/22 01:33:11;;;;;;;49.13;25.40;;;-0.50;99.90;;;;;;2096693;28;20048;-70
2021/12/22 01:34:13;;;;;;;56.05;25.55;;;-0.40;99.90;;;;;;2097573;28;20082;-70
2021/12/22 01:35:17;;;;;;;55.22;26.02;;;-0.40;99.90;;;;;;2086960;28;20742;-70
2021/12/22 01:36:19;;;;;;;52.80;26.08;;;-0.40;99.90;;;;;;2087922;28;20045;-71
2021/12/22 01:37:21;;;;;;;54.70;25.13;;;-0.40;99.90;;;;;;2089007;28;20102;-70
2021/12/22 01:38:23;;;;;;;62.65;26.85;;;-0.40;99.90;;;;;;2088451;28;20570;-70
2021/12/22 01:39:25;;;;;;;55.25;26.75;;;-0.40;99.90;;;;;;2083783;28;20103;-74
2021/12/22 01:40:27;;;;;;;57.67;27.10;;;-0.30;99.90;;;;;;2081495;28;20095;-70
2021/12/22 01:41:29;;;;;;;52.20;25.58;;;-0.30;99.90;;;;;;2097433;28;20109;-70
2021/12/22 01:42:31;;;;;;;58.50;25.13;;;-0.30;99.90;;;;;;2097290;28;20114;-70
2021/12/22 01:43:33;;;;;;;54.78;26.10;;;-0.30;99.90;;;;;;2089857;28;20128;-70
2021/12/22 01:50:00;;;;;;;55.50;26.05;;;-0.30;99.90;;;;;;2081451;28;20050;-71
2021/12/22 01:51:07;;;;;;;56.85;25.88;;;-0.20;99.90;;;;;;2081355;28;20041;-71
2021/12/22 01:52:09;;;;;;;54.03;27.33;;;-0.20;99.90;;;;;;2089259;28;20155;-71
2021/12/22 01:53:22;;;;;;;56.55;26.65;;;-0.20;99.90;;;;;;2088312;28;20409;-71
2021/12/22 01:54:33;;;;;;;55.00;26.30;;;-0.20;99.90;;;;;;2085861;28;22036;-71
2021/12/22 01:55:37;;;;;;;50.13;25.02;;;-0.20;99.90;;;;;;2085047;28;20041;-70
2021/12/22 01:56:41;;;;;;;53.15;25.30;;;-0.20;99.90;;;;;;2097036;28;20113;-70
2021/12/22 01:57:45;;;;;;;55.53;27.20;;;-0.20;99.90;;;;;;2096793;28;20098;-70
2021/12/22 01:58:52;;;;;;;55.45;26.15;;;-0.20;99.90;;;;;;2089151;28;20037;-70
2021/12/22 01:59:54;;;;;;;58.33;25.92;;;-0.20;99.90;;;;;;2089660;28;20090;-70
2021/12/22 02:00:56;;;;;;;;;;;-0.20;99.90;;;;;;2097734;28;20098;-69
2021/12/22 02:01:59;;;;;;;56.25;24.67;;;-0.20;99.90;;;;;;2094893;28;20748;-70
2021/12/22 02:03:02;;;;;;;59.78;27.35;;;-0.20;99.90;;;;;;2083631;28;20091;-70
2021/12/22 02:04:10;;;;;;;56.80;26.30;;;-0.20;99.90;;;;;;2084470;28;20041;-70
2021/12/22 02:05:13;;;;;;;57.22;27.02;;;-0.20;99.90;;;;;;2088408;28;20048;-70
2021/12/22 02:06:15;;;;;;;;;;;-0.20;99.90;;;;;;2089743;28;20378;-70
2021/12/22 02:07:17;;;;;;;52.67;24.92;;;-0.20;99.90;;;;;;2088802;28;20011;-70
2021/12/22 02:08:19;;;;;;;53.55;26.60;;;-0.20;99.90;;;;;;2078138;28;20091;-71
2021/12/22 02:10:46;;;;;;;52.10;24.55;;;-0.30;99.90;;;;;;2081467;28;20091;-70
2021/12/22 02:11:47;;;;;;;59.47;26.88;;;-0.30;99.90;;;;;;2087827;28;20090;-71
2021/12/22 02:12:53;;;;;;;55.67;27.45;;;-0.30;99.90;;;;;;2089154;28;20102;-70
2021/12/22 02:13:59;;;;;;;59.10;26.80;;;-0.30;99.90;;;;;;2089080;28;20092;-70
2021/12/22 02:15:04;;;;;;;57.85;26.17;;;-0.30;99.90;;;;;;2087425;28;20056;-70
2021/12/22 02:16:13;;;;;;;62.20;26.80;;;-0.30;99.90;;;;;;2081176;28;20420;-70
2021/12/22 02:17:15;;;;;;;56.70;26.27;;;-0.30;99.90;;;;;;2082645;28;20060;-70
2021/12/22 02:18:19;;;;;;;54.40;27.27;;;-0.20;99.90;;;;;;2089132;28;20045;-69
2021/12/22 02:19:21;;;;;;;64.05;29.73;;;-0.20;99.90;;;;;;2089543;28;20547;-70
2021/12/22 02:20:23;;;;;;;54.55;26.33;;;-0.20;99.90;;;;;;2088588;28;20045;-70
2021/12/22 02:21:28;;;;;;;53.17;28.75;;;-0.20;99.90;;;;;;2088801;28;20510;-70
2021/12/22 02:22:30;;;;;;;60.70;27.02;;;-0.30;99.90;;;;;;2088847;28;20052;-70
2021/12/22 02:23:33;;;;;;;55.22;26.65;;;-0.30;99.90;;;;;;2089184;28;20078;-70
2021/12/22 02:24:35;;;;;;;57.08;26.63;;;-0.30;99.90;;;;;;2086180;28;20060;-70
2021/12/22 02:25:45;;;;;;;63.88;27.67;;;-0.30;99.90;;;;;;2072888;28;20563;-70
2021/12/22 02:26:58;;;;;;;63.40;27.80;;;-0.30;99.90;;;;;;2080544;28;20739;-70
2021/12/22 02:28:03;;;;;;;58.28;26.70;;;-0.30;99.90;;;;;;2080485;28;20068;-70
2021/12/22 02:29:17;;;;;;;59.63;27.98;;;-0.30;99.90;;;;;;2080646;28;20489;-70
2021/12/22 02:30:26;;;;;;;55.03;25.90;;;-0.40;99.90;;;;;;2081055;28;20049;-70
2021/12/22 02:31:28;;;;;;;51.97;26.60;;;-0.30;99.90;;;;;;2081037;28;20046;-70
2021/12/22 02:33:08;;;;;;;53.58;26.50;;;-0.30;99.90;;;;;;2088761;28;20537;-70
2021/12/22 02:34:13;;;;;;;60.72;27.08;;;-0.30;99.90;;;;;;2086364;28;20676;-70
2021/12/22 02:35:15;;;;;;;56.13;26.80;;;-0.30;99.90;;;;;;2089054;28;20597;-70
2021/12/22 02:37:25;;;;;;;57.20;27.85;;;-0.30;99.90;;;;;;2089391;28;20045;-70
2021/12/22 02:38:27;;;;;;;55.22;27.65;;;-0.30;99.90;;;;;;2086390;28;20694;-70
2021/12/22 02:39:28;;;;;;;58.25;27.40;;;-0.30;99.90;;;;;;2083196;28;20127;-70
2021/12/22 02:40:30;;;;;;;56.03;27.45;;;-0.30;99.90;;;;;;2080320;28;20102;-70
2021/12/22 02:41:32;;;;;;;61.65;28.30;;;-0.30;99.90;;;;;;2072440;28;20053;-70
2021/12/22 02:42:35;;;;;;;61.30;27.65;;;-0.30;99.90;;;;;;2080475;28;20463;-70
2021/12/22 02:43:47;;;;;;;54.58;27.92;;;-0.20;99.90;;;;;;2081173;28;20049;-70
2021/12/22 02:44:48;;;;;;;54.45;27.52;;;-0.20;99.90;;;;;;2081047;28;20037;-70
2021/12/22 02:45:52;;;;;;;59.65;28.77;;;-0.30;99.90;;;;;;2080989;28;20582;-70
2021/12/22 02:46:54;;;;;;;53.72;26.83;;;-0.30;99.90;;;;;;2082136;28;20058;-70
2021/12/22 02:47:56;;;;;;;53.60;27.83;;;-0.30;99.90;;;;;;2081795;28;20476;-70
2021/12/22 02:49:00;;;;;;;60.22;27.95;;;-0.30;99.90;;;;;;2083408;28;20099;-70
2021/12/22 02:50:04;;;;;;;61.80;28.00;;;-0.30;99.90;;;;;;2097042;28;20194;-70
2021/12/22 02:51:06;;;;;;;54.58;28.35;;;-0.30;99.90;;;;;;2096410;28;20044;-70
2021/12/22 02:52:08;;;;;;;56.33;27.70;;;-0.30;99.90;;;;;;2089420;28;20074;-70
2021/12/22 02:53:13;;;;;;;62.15;27.27;;;-0.30;99.90;;;;;;2088432;28;20045;-70
2021/12/22 02:54:22;;;;;;;57.30;27.25;;;-0.30;99.90;;;;;;2083249;28;20044;-69
2021/12/22 02:55:30;;;;;;;57.65;27.83;;;-0.30;99.90;;;;;;2086135;28;20045;-71
2021/12/22 02:56:49;;;;;;;57.83;27.40;;;-0.30;99.90;;;;;;2088911;28;20546;-70
2021/12/22 02:57:53;;;;;;;56.30;27.90;;;-0.30;99.90;;;;;;2096615;28;20097;-70
2021/12/22 02:59:47;;;;;;;61.95;27.98;;;-0.30;99.90;;;;;;2096526;28;20044;-70
2021/12/22 03:00:34;;;;;;;53.67;28.55;;;-0.40;99.90;;;;;;2078166;28;20052;-70
2021/12/22 03:04:14;;;;;;;62.63;28.50;;;-0.40;99.90;;;;;;2082874;28;20813;-70
2021/12/22 03:05:17;;;;;;;60.20;28.15;;;-0.40;99.90;;;;;;2083635;28;20049;-70
2021/12/22 03:06:42;;;;;;;57.33;26.85;;;-0.40;99.90;;;;;;2084464;28;20106;-70
2021/12/22 03:07:45;;;;;;;58.63;26.75;;;-0.40;99.90;;;;;;2088361;28;20090;-70
2021/12/22 03:08:47;;;;;;;65.35;29.75;;;-0.40;99.90;;;;;;2088526;28;20049;-73
2021/12/22 03:10:02;;;;;;;64.25;29.30;;;-0.40;99.90;;;;;;2088991;28;20438;-70
2021/12/22 03:11:05;;;;;;;59.60;28.80;;;-0.40;99.90;;;;;;2088290;28;20400;-70
2021/12/22 03:12:09;;;;;;;53.70;27.08;;;-0.40;99.90;;;;;;2087064;28;20438;-70
2021/12/22 03:13:11;;;;;;;59.60;28.05;;;-0.40;99.90;;;;;;2088018;28;20106;-70
2021/12/22 03:14:15;;;;;;;60.13;28.58;;;-0.50;99.90;;;;;;2088400;28;20048;-70
2021/12/22 03:15:17;;;;;;;71.95;29.45;;;-0.40;99.90;;;;;;2088409;28;20067;-70
2021/12/22 03:16:20;;;;;;;59.42;28.00;;;-0.50;99.90;;;;;;2088575;28;20041;-70
2021/12/22 03:17:22;;;;;;;54.83;27.38;;;-0.50;99.90;;;;;;2088142;28;20041;-70
2021/12/22 03:18:24;;;;;;;58.10;27.67;;;-0.50;99.90;;;;;;2086884;28;20044;-70
2021/12/22 03:19:31;;;;;;;;;;;-0.40;99.90;;;;;;2096396;28;20056;-70
2021/12/22 03:20:33;;;;;;;62.20;26.63;;;-0.40;99.90;;;;;;2088630;28;19965;-70
2021/12/22 03:21:35;;;;;;;57.03;26.65;;;-0.30;99.90;;;;;;2088946;28;20045;-70
2021/12/22 03:22:37;;;;;;;60.25;29.58;;;-0.30;99.90;;;;;;2088547;28;20045;-70
2021/12/22 03:23:39;;;;;;;58.80;28.40;;;-0.30;99.90;;;;;;2085866;28;20086;-70
2021/12/22 03:24:41;;;;;;;62.53;29.77;;;-0.30;99.90;;;;;;2096555;28;20052;-70
2021/12/22 03:25:43;;;;;;;61.83;28.88;;;-0.30;99.90;;;;;;2093019;28;20049;-69
2021/12/22 03:26:45;;;;;;;60.65;27.80;;;-0.30;99.90;;;;;;2071644;28;20049;-70
2021/12/22 03:27:50;;;;;;;60.40;27.70;;;-0.30;99.90;;;;;;2081178;28;20521;-70
2021/12/22 03:28:52;;;;;;;59.10;28.75;;;-0.40;99.90;;;;;;2088831;28;20053;-70
2021/12/22 03:29:54;;;;;;;60.75;28.95;;;-0.40;99.90;;;;;;2096709;28;20101;-70
2021/12/22 03:30:58;;;;;;;59.63;28.45;;;-0.40;99.90;;;;;;2094092;28;20044;-70
2021/12/22 03:32:01;;;;;;;60.80;29.13;;;-0.40;99.90;;;;;;2083806;28;20118;-70
2021/12/22 03:33:03;;;;;;;58.38;28.98;;;-0.40;99.90;;;;;;2084078;28;20144;-70
2021/12/22 03:34:05;;;;;;;64.38;30.48;;;-0.40;99.90;;;;;;2080120;28;20717;-70
2021/12/22 03:35:14;;;;;;;56.92;28.23;;;-0.40;99.90;;;;;;2080102;28;20077;-70
2021/12/22 03:36:16;;;;;;;68.43;29.83;;;-0.50;99.90;;;;;;2083012;28;20130;-70
2021/12/22 03:37:18;;;;;;;;;;;-0.50;99.90;;;;;;2077835;28;20049;-70
2021/12/22 03:38:20;;;;;;;61.20;26.85;;;-0.40;99.90;;;;;;2082005;28;19967;-70
2021/12/22 03:39:22;;;;;;;61.53;27.70;;;-0.50;99.90;;;;;;2090136;28;20079;-70
2021/12/22 03:40:26;;;;;;;52.83;25.70;;;-0.50;99.90;;;;;;2097960;28;20057;-70
2021/12/22 03:41:28;;;;;;;55.28;27.85;;;-0.50;99.90;;;;;;2087735;28;20045;-70
2021/12/22 03:42:30;;;;;;;61.17;29.80;;;-0.50;99.90;;;;;;2081971;28;20045;-70
2021/12/22 03:43:32;;;;;;;60.28;28.83;;;-0.50;99.90;;;;;;2081649;28;20505;-70
2021/12/22 03:44:34;;;;;;;63.70;28.23;;;-0.50;99.90;;;;;;2088470;28;20041;-70
2021/12/22 03:45:36;;;;;;;59.80;30.40;;;-0.50;99.90;;;;;;2084063;28;20111;-70
2021/12/22 03:46:38;;;;;;;64.93;29.95;;;-0.40;99.90;;;;;;2090522;28;20400;-70
2021/12/22 03:47:40;;;;;;;57.70;28.33;;;-0.50;99.90;;;;;;2090460;28;20446;-69
2021/12/22 03:48:42;;;;;;;65.18;30.95;;;-0.40;99.90;;;;;;2090598;28;20045;-70
2021/12/22 03:49:44;;;;;;;59.33;27.27;;;-0.50;99.90;;;;;;2089942;28;20105;-70
2021/12/22 03:50:46;;;;;;;56.97;28.60;;;-0.50;99.90;;;;;;2087457;28;20064;-70
2021/12/22 03:51:48;;;;;;;54.85;28.15;;;-0.50;99.90;;;;;;2083641;28;20045;-70
2021/12/22 03:52:50;;;;;;;61.53;27.70;;;-0.60;99.90;;;;;;2083864;28;20046;-70
2021/12/22 03:53:52;;;;;;;57.65;27.13;;;-0.60;99.90;;;;;;2089897;28;20478;-70
2021/12/22 03:54:58;;;;;;;;;;;-0.50;99.90;;;;;;2090153;28;20045;-70
2021/12/22 03:56:00;;;;;;;56.72;26.58;;;-0.60;99.90;;;;;;2098059;28;19963;-70
2021/12/22 03:57:02;;;;;;;58.78;28.42;;;-0.60;99.90;;;;;;2097989;28;20045;-70
2021/12/22 03:58:04;;;;;;;;;;;-0.60;99.90;;;;;;2091044;28;20586;-70
2021/12/22 03:59:06;;;;;;;51.95;25.17;;;-0.70;99.90;;;;;;2098344;28;19962;-70
2021/12/22 04:00:11;;;;;;;55.70;27.92;;;-0.80;99.90;;;;;;2094146;28;20508;-70
2021/12/22 04:01:14;;;;;;;54.50;27.35;;;-0.80;99.90;;;;;;2090221;28;20174;-70
2021/12/22 04:02:19;;;;;;;60.80;27.70;;;-0.80;99.90;;;;;;2090279;28;20105;-70
2021/12/22 04:03:25;;;;;;;53.55;26.85;;;-0.80;99.90;;;;;;2089877;28;20627;-69
2021/12/22 04:04:27;;;;;;;56.13;26.05;;;-0.90;99.90;;;;;;2089454;28;20508;-70
2021/12/22 04:05:29;;;;;;;60.00;27.70;;;-0.90;99.90;;;;;;2089299;28;20045;-70
2021/12/22 04:06:31;;;;;;;52.22;26.55;;;-1.00;99.90;;;;;;2075418;28;20559;-70
2021/12/22 04:07:33;;;;;;;58.00;28.60;;;-1.00;99.90;;;;;;2088606;28;20138;-69
2021/12/22 04:08:35;;;;;;;59.30;28.35;;;-1.00;99.90;;;;;;2090487;28;20086;-70
2021/12/22 04:09:36;;;;;;;;;;;-1.00;99.90;;;;;;2088320;28;20041;-70
2021/12/22 04:10:39;;;;;;;53.25;27.35;;;-0.90;99.90;;;;;;2089592;28;19946;-70
2021/12/22 04:11:43;;;;;;;61.85;28.75;;;-0.90;99.90;;;;;;2090249;28;20079;-70
2021/12/22 04:12:50;;;;;;;60.75;29.13;;;-0.80;99.90;;;;;;2098134;28;20048;-69
2021/12/22 04:13:52;;;;;;;67.45;29.55;;;-0.80;99.90;;;;;;2096441;28;20046;-70
2021/12/22 04:14:54;;;;;;;64.50;30.63;;;-0.80;99.90;;;;;;2082038;28;20045;-70
2021/12/22 04:15:55;;;;;;;59.20;28.30;;;-0.70;99.90;;;;;;2090032;28;20451;-70
2021/12/22 04:16:57;;;;;;;57.15;27.80;;;-0.70;99.90;;;;;;2090217;28;20048;-70
2021/12/22 04:17:59;;;;;;;58.88;29.05;;;-0.70;99.90;;;;;;2090062;28;20045;-71
2021/12/22 04:19:02;;;;;;;61.20;29.13;;;-0.80;99.90;;;;;;2088121;28;20382;-70
2021/12/22 04:20:04;;;;;;;59.13;29.30;;;-0.80;99.90;;;;;;2090004;28;20098;-70
2021/12/22 04:21:06;;;;;;;60.58;28.98;;;-0.80;99.90;;;;;;2090248;28;20090;-70
2021/12/22 04:22:08;;;;;;;60.90;29.33;;;-0.80;99.90;;;;;;2098117;28;20057;-70
2021/12/22 04:23:15;;;;;;;54.38;28.83;;;-0.80;99.90;;;;;;2097405;28;20049;-70
2021/12/22 04:24:18;;;;;;;56.60;27.80;;;-0.70;99.90;;;;;;2090437;28;20049;-70
2021/12/22 04:25:21;;;;;;;52.53;26.77;;;-0.80;99.90;;;;;;2087963;28;20090;-69
2021/12/22 04:26:23;;;;;;;66.13;28.63;;;-0.80;99.90;;;;;;2082543;28;20428;-70
2021/12/22 04:27:25;;;;;;;58.15;28.02;;;-0.80;99.90;;;;;;2087408;28;20579;-70
2021/12/22 04:28:27;;;;;;;60.50;27.90;;;-0.80;99.90;;;;;;2089590;28;20053;-69
2021/12/22 04:29:29;;;;;;;58.10;28.30;;;-0.80;99.90;;;;;;2089281;28;20139;-70
2021/12/22 04:30:33;;;;;;;53.75;28.05;;;-0.80;99.90;;;;;;2081485;28;20140;-69
2021/12/22 04:31:35;;;;;;;60.80;30.67;;;-0.80;99.90;;;;;;2081470;28;20053;-69
2021/12/22 04:32:37;;;;;;;52.17;26.30;;;-0.70;99.90;;;;;;2087998;28;20129;-71
2021/12/22 04:33:38;;;;;;;58.03;27.00;;;-0.70;99.90;;;;;;2096896;28;20062;-70
2021/12/22 04:34:40;;;;;;;54.45;27.88;;;-0.60;99.90;;;;;;2086946;28;20053;-71
2021/12/22 04:35:43;;;;;;;60.92;30.13;;;-0.60;99.90;;;;;;2081251;28;20053;-70
2021/12/22 04:36:45;;;;;;;59.15;27.67;;;-0.60;99.90;;;;;;2081402;28;20041;-70
2021/12/22 04:37:47;;;;;;;56.80;27.52;;;-0.60;99.90;;;;;;2081975;28;20153;-70
2021/12/22 04:38:49;;;;;;;55.25;27.65;;;-0.60;99.90;;;;;;2082051;28;20458;-70
2021/12/22 04:39:50;;;;;;;55.80;28.02;;;-0.50;99.90;;;;;;2089407;28;20639;-70
2021/12/22 04:40:52;;;;;;;55.08;28.17;;;-0.60;99.90;;;;;;2093663;28;20589;-70
2021/12/22 04:41:54;;;;;;;62.60;28.73;;;-0.60;99.90;;;;;;2088230;28;20157;-70
2021/12/22 04:42:56;;;;;;;58.90;28.58;;;-0.60;99.90;;;;;;2081365;28;20042;-70
2021/12/22 04:43:58;;;;;;;53.67;27.38;;;-0.60;99.90;;;;;;2089729;28;20049;-70
2021/12/22 04:45:03;;;;;;;54.20;27.05;;;-0.60;99.90;;;;;;2095181;28;20565;-70
2021/12/22 04:46:05;;;;;;;54.92;26.63;;;-0.60;99.90;;;;;;2096981;28;20106;-70
2021/12/22 04:47:07;;;;;;;53.75;26.13;;;-0.50;99.90;;;;;;2088924;28;20539;-70
2021/12/22 04:48:10;;;;;;;56.20;26.20;;;-0.50;99.90;;;;;;2093980;28;20060;-69
2021/12/22 04:49:12;;;;;;;52.38;26.25;;;-0.50;99.90;;;;;;2092845;28;20497;-70
2021/12/22 04:50:17;;;;;;;55.83;27.45;;;-0.60;99.90;;;;;;2087655;28;20098;-70
2021/12/22 04:51:28;;;;;;;55.25;26.65;;;-0.60;99.90;;;;;;2081717;28;20128;-70
2021/12/22 04:52:39;;;;;;;51.20;26.38;;;-0.60;99.90;;;;;;2081420;28;20041;-70
2021/12/22 04:53:56;;;;;;;53.63;26.63;;;-0.70;99.90;;;;;;2097479;28;20044;-70
2021/12/22 04:55:03;;;;;;;50.72;24.90;;;-0.70;99.90;;;;;;2093239;28;20556;-70
2021/12/22 04:56:05;;;;;;;55.80;26.35;;;-0.70;99.90;;;;;;2080948;28;20120;-69
2021/12/22 04:57:07;;;;;;;52.38;25.42;;;-0.80;99.90;;;;;;2084800;28;20045;-69
2021/12/22 04:58:09;;;;;;;53.50;26.15;;;-0.80;99.90;;;;;;2084015;28;20042;-70
2021/12/22 04:59:12;;;;;;;57.30;26.75;;;-0.80;99.90;;;;;;2073276;28;20053;-70
2021/12/22 05:00:16;;;;;;;57.13;27.15;;;-0.80;99.90;;;;;;2081430;28;20603;-69
2021/12/22 05:01:18;;;;;;;57.35;26.63;;;-0.80;99.90;;;;;;2088236;28;20045;-70
2021/12/22 05:02:20;;;;;;;48.83;25.73;;;-0.80;99.90;;;;;;2081130;28;20049;-69
2021/12/22 05:03:22;;;;;;;55.90;26.65;;;-0.90;99.90;;;;;;2081133;28;20137;-69
2021/12/22 05:04:24;;;;;;;52.63;25.92;;;-0.90;99.90;;;;;;2081053;28;20049;-70
2021/12/22 05:05:27;;;;;;;53.03;26.80;;;-0.90;99.90;;;;;;2078610;28;20107;-70
2021/12/22 05:06:29;;;;;;;50.97;26.27;;;-0.90;99.90;;;;;;2088338;28;20098;-69
2021/12/22 05:07:31;;;;;;;59.97;27.52;;;-0.90;99.90;;;;;;2085071;28;20040;-69
2021/12/22 05:08:33;;;;;;;53.60;25.40;;;-0.90;99.90;;;;;;2088985;28;20045;-70
2021/12/22 05:09:35;;;;;;;57.25;26.02;;;-1.00;99.90;;;;;;2087313;28;20045;-70
2021/12/22 05:10:37;;;;;;;54.67;25.67;;;-1.00;99.90;;;;;;2089635;28;20090;-69
2021/12/22 05:11:40;;;;;;;49.65;25.92;;;-0.90;99.90;;;;;;2087097;28;20045;-70
2021/12/22 05:12:43;;;;;;;55.63;27.10;;;-0.90;99.90;;;;;;2080998;28;20079;-70
2021/12/22 05:13:45;;;;;;;51.85;26.50;;;-0.90;99.90;;;;;;2080999;28;20053;-69
2021/12/22 05:14:50;;;;;;;51.80;25.98;;;-1.00;99.90;;;;;;2080986;28;20142;-70
2021/12/22 05:15:52;;;;;;;51.20;26.20;;;-1.00;99.90;;;;;;2080845;28;20045;-70
2021/12/22 05:16:59;;;;;;;49.33;26.08;;;-1.10;99.90;;;;;;2080873;28;20054;-70
2021/12/22 05:18:15;;;;;;;54.65;26.42;;;-1.10;99.90;;;;;;2080685;28;20038;-69
2021/12/22 05:19:16;;;;;;;56.30;26.70;;;-1.10;99.90;;;;;;2080250;28;20046;-70
2021/12/22 05:20:18;;;;;;;55.50;26.33;;;-1.10;99.90;;;;;;2087570;28;20052;-71
2021/12/22 05:21:22;;;;;;;56.97;26.55;;;-1.00;99.90;;;;;;2082666;28;20079;-70
2021/12/22 05:22:24;;;;;;;53.90;26.00;;;-1.00;99.90;;;;;;2089429;28;20071;-70
2021/12/22 05:23:26;;;;;;;55.95;27.77;;;-1.00;99.90;;;;;;2089436;28;20044;-69
2021/12/22 05:24:28;;;;;;;48.30;24.70;;;-1.00;99.90;;;;;;2097362;28;20078;-69
2021/12/22 05:25:30;;;;;;;56.22;26.83;;;-1.00;99.90;;;;;;2089279;28;20052;-69
2021/12/22 05:26:32;;;;;;;52.45;26.23;;;-1.00;99.90;;;;;;2089047;28;20045;-70
2021/12/22 05:27:34;;;;;;;54.88;27.23;;;-1.00;99.90;;;;;;2094484;28;20980;-69
2021/12/22 05:28:36;;;;;;;55.00;26.20;;;-1.00;99.90;;;;;;2096923;28;20086;-70
2021/12/22 05:29:38;;;;;;;62.92;28.15;;;-1.00;99.90;;;;;;2089419;28;20041;-70
2021/12/22 05:30:40;;;;;;;48.20;24.98;;;-1.00;99.90;;;;;;2097385;28;20405;-69
2021/12/22 05:31:43;;;;;;;51.55;26.05;;;-1.00;99.90;;;;;;2097159;28;20097;-69
2021/12/22 05:32:46;;;;;;;51.90;27.58;;;-0.90;99.90;;;;;;2097519;28;20434;-70
2021/12/22 05:33:48;;;;;;;56.75;26.15;;;-0.90;99.90;;;;;;2096956;28;20045;-69
2021/12/22 05:34:50;;;;;;;57.42;27.50;;;-0.90;99.90;;;;;;2089073;28;20098;-70
2021/12/22 05:35:52;;;;;;;53.60;25.45;;;-0.90;99.90;;;;;;2085415;28;20045;-70
2021/12/22 05:36:55;;;;;;;48.30;24.80;;;-0.90;99.90;;;;;;2085361;28;20046;-70